createdAt,value
2018-11-26T00:01:14.769Z,6.25
2018-11-26T00:03:43.422Z,6.24
2018-11-26T00:06:12.141Z,6.17
2018-11-26T00:08:40.786Z,6.30
2018-11-26T00:11:44.140Z,6.24
2018-11-26T00:14:12.766Z,6.18
2018-11-26T00:16:41.419Z,6.25
2018-11-26T00:19:10.013Z,6.30
2018-11-26T00:21:38.697Z,6.34
2018-11-26T00:24:07.391Z,6.42
2018-11-26T00:26:35.970Z,6.42
2018-11-26T00:29:04.602Z,6.41
2018-11-26T00:31:33.353Z,6.46
2018-11-26T00:34:01.952Z,6.56
2018-11-26T00:36:30.656Z,6.58
2018-11-26T00:38:59.661Z,6.57
2018-11-26T00:41:28.310Z,6.45
2018-11-26T00:43:57.002Z,6.32
2018-11-26T00:46:25.632Z,6.29
2018-11-26T00:48:54.387Z,6.31
2018-11-26T00:51:23.023Z,6.35
2018-11-26T00:53:52.320Z,6.41
2018-11-26T00:56:21.003Z,6.44
2018-11-26T00:58:49.576Z,6.46
2018-11-26T01:01:18.252Z,6.50
2018-11-26T01:03:46.834Z,6.49
2018-11-26T01:06:15.480Z,6.51
2018-11-26T01:08:44.180Z,6.41
2018-11-26T01:11:12.837Z,6.31
2018-11-26T01:13:41.510Z,6.06
2018-11-26T01:16:10.188Z,5.88
2018-11-26T01:18:38.852Z,5.49
2018-11-26T01:21:07.455Z,5.54
2018-11-26T01:23:36.043Z,5.78
2018-11-26T01:26:04.671Z,5.89
2018-11-26T01:28:33.317Z,6.04
2018-11-26T01:31:01.954Z,6.09
2018-11-26T01:33:30.582Z,6.16
2018-11-26T01:35:59.271Z,6.26
2018-11-26T01:38:27.888Z,6.19
2018-11-26T01:40:56.484Z,6.34
2018-11-26T01:43:25.145Z,6.38
2018-11-26T01:45:53.826Z,6.22
2018-11-26T01:48:22.488Z,5.95
2018-11-26T01:50:51.145Z,5.97
2018-11-26T01:53:19.757Z,5.83
2018-11-26T01:55:48.375Z,5.92
2018-11-26T01:58:17.046Z,6.02
2018-11-26T02:00:45.812Z,5.98
2018-11-26T02:03:14.423Z,6.15
2018-11-26T02:05:43.068Z,6.01
2018-11-26T02:08:11.728Z,6.14
2018-11-26T02:10:40.353Z,6.18
2018-11-26T02:13:09.062Z,6.02
2018-11-26T02:15:38.818Z,6.01
2018-11-26T02:18:08.229Z,6.10
2018-11-26T02:20:36.897Z,6.01
2018-11-26T02:23:05.672Z,6.14
2018-11-26T02:25:34.364Z,6.10
2018-11-26T02:28:03.024Z,6.11
2018-11-26T02:30:31.668Z,6.18
2018-11-26T02:33:00.504Z,6.10
2018-11-26T02:35:29.163Z,6.10
2018-11-26T02:37:57.782Z,6.15
2018-11-26T02:40:29.702Z,6.07
2018-11-26T02:42:58.391Z,6.05
2018-11-26T02:45:27.865Z,6.04
2018-11-26T02:47:56.534Z,6.05
2018-11-26T02:50:25.144Z,6.03
2018-11-26T02:52:53.811Z,6.00
2018-11-26T02:55:22.479Z,6.05
2018-11-26T02:57:51.142Z,6.03
2018-11-26T03:00:19.812Z,6.13
2018-11-26T03:02:48.414Z,6.18
2018-11-26T03:05:32.862Z,6.23
2018-11-26T03:08:01.509Z,6.17
2018-11-26T03:10:30.236Z,6.10
2018-11-26T03:12:58.822Z,6.17
2018-11-26T03:15:27.488Z,6.27
2018-11-26T03:17:56.821Z,6.26
2018-11-26T03:20:25.508Z,6.34
2018-11-26T03:22:54.128Z,6.32
2018-11-26T03:25:22.843Z,6.34
2018-11-26T03:27:51.733Z,6.30
2018-11-26T03:30:21.650Z,6.25
2018-11-26T03:32:50.395Z,6.27
2018-11-26T03:35:19.010Z,6.34
2018-11-26T03:37:47.639Z,6.35
2018-11-26T03:40:16.328Z,6.30
2018-11-26T03:42:45.120Z,6.25
2018-11-26T03:45:15.634Z,6.29
2018-11-26T03:47:44.399Z,6.29
2018-11-26T03:50:13.939Z,6.12
2018-11-26T03:52:43.764Z,6.21
2018-11-26T03:55:12.933Z,6.31
2018-11-26T03:57:41.697Z,6.06
2018-11-26T04:00:15.578Z,6.24
2018-11-26T04:02:44.276Z,6.29
2018-11-26T04:05:13.109Z,6.33
2018-11-26T04:07:41.949Z,6.27
2018-11-26T04:10:11.642Z,6.20
2018-11-26T04:12:40.499Z,6.30
2018-11-26T04:15:11.593Z,6.29
2018-11-26T04:17:40.269Z,6.10
2018-11-26T04:20:09.469Z,5.88
2018-11-26T04:22:38.301Z,5.85
2018-11-26T04:25:08.381Z,5.68
2018-11-26T04:27:37.068Z,5.70
2018-11-26T04:30:10.935Z,5.68
2018-11-26T04:32:40.227Z,5.76
2018-11-26T04:35:08.966Z,5.72
2018-11-26T04:37:37.699Z,5.75
2018-11-26T04:40:09.418Z,5.73
2018-11-26T04:42:38.154Z,5.73
2018-11-26T04:45:08.460Z,5.63
2018-11-26T04:47:37.347Z,5.62
2018-11-26T04:50:10.380Z,5.54
2018-11-26T04:52:39.086Z,5.59
2018-11-26T04:55:09.090Z,5.70
2018-11-26T04:57:42.145Z,5.79
2018-11-26T05:00:13.308Z,5.81
2018-11-26T05:02:41.990Z,5.81
2018-11-26T05:05:11.685Z,5.80
2018-11-26T05:07:40.297Z,5.65
2018-11-26T05:10:15.483Z,5.54
2018-11-26T05:12:44.185Z,5.54
2018-11-26T05:15:13.597Z,5.62
2018-11-26T05:17:42.335Z,5.53
2018-11-26T05:20:12.700Z,5.52
2018-11-26T05:22:41.433Z,5.62
2018-11-26T05:25:11.053Z,5.41
2018-11-26T05:27:39.717Z,5.55
2018-11-26T05:30:10.830Z,5.46
2018-11-26T05:32:39.452Z,5.62
2018-11-26T05:35:09.334Z,5.77
2018-11-26T05:37:38.057Z,5.79
2018-11-26T05:40:10.379Z,5.92
2018-11-26T05:42:39.175Z,5.98
2018-11-26T05:45:10.779Z,6.08
2018-11-26T05:47:39.424Z,6.09
2018-11-26T05:50:09.795Z,6.15
2018-11-26T05:52:39.321Z,6.17
2018-11-26T05:55:10.017Z,6.01
2018-11-26T05:57:38.651Z,5.97
2018-11-26T06:00:23.025Z,5.95
2018-11-26T06:02:51.566Z,5.78
2018-11-26T06:05:20.199Z,5.98
2018-11-26T06:07:48.959Z,5.87
2018-11-26T06:10:17.750Z,5.47
2018-11-26T06:12:46.395Z,5.54
2018-11-26T06:15:15.013Z,5.64
2018-11-26T06:17:43.714Z,5.70
2018-11-26T06:20:13.360Z,5.77
2018-11-26T06:22:43.371Z,5.83
2018-11-26T06:25:17.317Z,5.76
2018-11-26T06:27:46.006Z,5.83
2018-11-26T06:30:17.661Z,5.94
2018-11-26T06:32:46.761Z,5.79
2018-11-26T06:35:19.578Z,5.51
2018-11-26T06:37:48.304Z,5.65
2018-11-26T06:40:16.982Z,5.80
2018-11-26T06:42:46.024Z,5.83
2018-11-26T06:45:16.830Z,5.90
2018-11-26T06:47:45.444Z,5.76
2018-11-26T06:50:15.306Z,5.95
2018-11-26T06:52:44.164Z,6.12
2018-11-26T06:55:14.521Z,6.20
2018-11-26T06:57:43.281Z,6.36
2018-11-26T07:00:14.113Z,6.50
2018-11-26T07:02:42.765Z,6.55
2018-11-26T07:05:13.001Z,6.59
2018-11-26T07:07:41.757Z,6.74
2018-11-26T07:10:11.533Z,6.68
2018-11-26T07:12:40.371Z,6.69
2018-11-26T07:15:12.622Z,6.83
2018-11-26T07:17:41.305Z,6.68
2018-11-26T07:20:13.102Z,6.67
2018-11-26T07:22:41.758Z,6.86
2018-11-26T07:25:11.777Z,6.80
2018-11-26T07:27:40.440Z,6.85
2018-11-26T07:30:16.996Z,7.03
2018-11-26T07:32:45.736Z,7.00
2018-11-26T07:35:15.200Z,7.14
2018-11-26T07:37:43.907Z,7.18
2018-11-26T07:40:15.577Z,7.24
2018-11-26T07:42:55.387Z,7.22
2018-11-26T07:45:24.092Z,7.24
2018-11-26T07:47:52.789Z,7.28
2018-11-26T07:50:21.445Z,7.22
2018-11-26T07:52:50.080Z,7.32
2018-11-26T07:55:19.991Z,7.38
2018-11-26T07:57:48.638Z,7.31
2018-11-26T08:00:18.743Z,7.25
2018-11-26T08:02:47.868Z,7.26
2018-11-26T08:05:18.761Z,6.83
2018-11-26T08:07:47.580Z,7.13
2018-11-26T08:10:17.628Z,7.17
2018-11-26T08:12:47.159Z,6.86
2018-11-26T08:15:22.436Z,6.90
2018-11-26T08:17:49.977Z,7.02
2018-11-26T08:20:18.690Z,6.81
2018-11-26T08:22:47.473Z,6.99
2018-11-26T08:25:18.779Z,7.17
2018-11-26T08:27:48.354Z,7.31
2018-11-26T08:30:22.637Z,7.43
2018-11-26T08:32:54.134Z,7.64
2018-11-26T08:35:22.818Z,7.73
2018-11-26T08:37:57.646Z,7.73
2018-11-26T08:40:27.456Z,7.83
2018-11-26T08:42:59.403Z,7.83
2018-11-26T08:45:30.187Z,8.03
2018-11-26T08:48:01.079Z,8.21
2018-11-26T08:50:29.849Z,8.32
2018-11-26T08:52:58.515Z,8.30
2018-11-26T08:55:27.230Z,8.33
2018-11-26T08:57:55.916Z,8.52
2018-11-26T09:00:24.627Z,8.41
2018-11-26T09:03:00.332Z,8.47
2018-11-26T09:05:34.356Z,8.39
2018-11-26T09:08:03.044Z,8.40
2018-11-26T09:10:31.723Z,8.39
2018-11-26T09:13:00.408Z,8.49
2018-11-26T09:15:29.065Z,8.45
2018-11-26T09:17:57.705Z,8.49
2018-11-26T09:20:26.385Z,8.56
2018-11-26T09:22:55.050Z,8.63
2018-11-26T09:25:23.664Z,8.76
2018-11-26T09:27:52.326Z,8.74
2018-11-26T09:30:21.023Z,8.98
2018-11-26T09:32:49.673Z,9.19
2018-11-26T09:35:18.312Z,9.56
2018-11-26T09:37:46.950Z,9.72
2018-11-26T09:40:17.747Z,9.68
2018-11-26T09:42:46.415Z,9.67
2018-11-26T09:45:16.339Z,9.90
2018-11-26T09:47:45.093Z,10.07
2018-11-26T09:50:15.866Z,10.19
2018-11-26T09:52:44.622Z,9.88
2018-11-26T09:55:15.516Z,10.14
2018-11-26T09:57:44.314Z,10.22
2018-11-26T10:00:20.438Z,10.27
2018-11-26T10:02:51.097Z,10.13
2018-11-26T10:05:22.034Z,9.88
2018-11-26T10:07:50.758Z,10.08
2018-11-26T10:10:19.448Z,10.31
2018-11-26T10:12:48.117Z,11.11
2018-11-26T10:15:20.679Z,11.45
2018-11-26T10:17:49.464Z,11.15
2018-11-26T10:20:18.194Z,11.06
2018-11-26T10:22:47.434Z,11.22
2018-11-26T10:25:17.150Z,11.23
2018-11-26T10:27:45.778Z,11.19
2018-11-26T10:30:18.804Z,11.01
2018-11-26T10:32:51.008Z,10.97
2018-11-26T10:35:20.351Z,10.88
2018-11-26T10:37:49.144Z,11.01
2018-11-26T10:40:21.198Z,11.34
2018-11-26T10:42:49.911Z,11.85
2018-11-26T10:45:19.684Z,12.18
2018-11-26T10:47:48.428Z,12.12
2018-11-26T10:50:18.136Z,11.86
2018-11-26T10:52:55.648Z,11.67
2018-11-26T10:55:25.681Z,11.56
2018-11-26T10:57:54.338Z,11.55
2018-11-26T11:00:28.260Z,11.41
2018-11-26T11:02:56.933Z,11.62
2018-11-26T11:05:25.629Z,11.65
2018-11-26T11:07:54.303Z,11.64
2018-11-26T11:10:27.226Z,11.85
2018-11-26T11:12:55.878Z,11.88
2018-11-26T11:15:24.625Z,11.96
2018-11-26T11:17:53.663Z,11.88
2018-11-26T11:20:24.851Z,11.76
2018-11-26T11:22:53.588Z,11.50
2018-11-26T11:25:22.733Z,11.55
2018-11-26T11:27:51.802Z,11.57
2018-11-26T11:30:22.435Z,11.47
2018-11-26T11:32:51.133Z,11.52
2018-11-26T11:35:20.033Z,11.57
2018-11-26T11:37:49.547Z,11.59
2018-11-26T11:40:26.005Z,11.73
2018-11-26T11:42:54.800Z,11.79
2018-11-26T11:45:23.956Z,11.84
2018-11-26T11:47:52.596Z,11.92
2018-11-26T11:50:21.893Z,12.05
2018-11-26T11:52:50.827Z,12.03
2018-11-26T11:55:21.468Z,12.13
2018-11-26T11:57:50.344Z,12.12
2018-11-26T12:00:26.909Z,12.14
2018-11-26T12:02:55.593Z,12.17
2018-11-26T12:05:24.298Z,12.06
2018-11-26T12:07:53.004Z,11.77
2018-11-26T12:10:21.754Z,11.84
2018-11-26T12:12:50.379Z,11.91
2018-11-26T12:15:18.996Z,11.67
2018-11-26T12:17:48.463Z,11.54
2018-11-26T12:20:17.118Z,11.51
2018-11-26T12:22:46.107Z,11.58
2018-11-26T12:25:18.908Z,11.70
2018-11-26T12:27:47.633Z,11.72
2018-11-26T12:30:20.654Z,11.70
2018-11-26T12:32:49.322Z,12.03
2018-11-26T12:35:18.048Z,12.63
2018-11-26T12:37:46.746Z,13.74
2018-11-26T12:40:17.620Z,14.75
2018-11-26T12:42:46.322Z,14.93
2018-11-26T12:45:19.554Z,14.83
2018-11-26T12:47:48.226Z,14.19
2018-11-26T12:50:47.783Z,14.00
2018-11-26T12:53:16.469Z,13.83
2018-11-26T12:55:45.239Z,13.55
2018-11-26T12:58:13.947Z,13.43
2018-11-26T13:00:42.623Z,12.90
2018-11-26T13:03:13.541Z,13.07
2018-11-26T13:05:42.254Z,12.90
2018-11-26T13:08:10.886Z,13.14
2018-11-26T13:10:39.694Z,13.27
2018-11-26T13:13:09.744Z,13.26
2018-11-26T13:15:38.486Z,13.23
2018-11-26T13:18:07.583Z,13.24
2018-11-26T13:20:36.330Z,13.20
2018-11-26T13:23:05.936Z,12.85
2018-11-26T13:25:35.994Z,12.82
2018-11-26T13:28:05.132Z,12.88
2018-11-26T13:30:49.923Z,12.91
2018-11-26T13:33:19.450Z,12.79
2018-11-26T13:35:49.188Z,12.05
2018-11-26T13:38:17.722Z,12.32
2018-11-26T13:40:46.393Z,12.54
2018-11-26T13:43:16.485Z,12.57
2018-11-26T13:45:46.557Z,12.63
2018-11-26T13:48:16.458Z,12.72
2018-11-26T13:50:48.843Z,12.83
2018-11-26T13:53:17.671Z,12.89
2018-11-26T13:55:46.409Z,12.87
2018-11-26T13:58:15.104Z,12.74
2018-11-26T14:00:43.844Z,12.81
2018-11-26T14:03:12.567Z,12.82
2018-11-26T14:05:41.233Z,12.73
2018-11-26T14:08:09.910Z,12.64
2018-11-26T14:10:38.547Z,12.73
2018-11-26T14:13:11.624Z,12.71
2018-11-26T14:15:40.347Z,12.58
2018-11-26T14:18:09.039Z,12.57
2018-11-26T14:20:37.747Z,12.49
2018-11-26T14:23:07.067Z,12.38
2018-11-26T14:25:35.895Z,12.38
2018-11-26T14:28:04.641Z,12.42
2018-11-26T14:30:33.375Z,12.40
2018-11-26T14:33:02.000Z,12.40
2018-11-26T14:35:30.699Z,12.42
2018-11-26T14:38:01.186Z,12.47
2018-11-26T14:40:33.449Z,12.38
2018-11-26T14:43:02.152Z,12.43
2018-11-26T14:45:30.984Z,12.52
2018-11-26T14:47:59.779Z,12.42
2018-11-26T14:50:28.468Z,12.21
2018-11-26T14:52:57.131Z,12.01
2018-11-26T14:55:28.950Z,12.05
2018-11-26T14:57:57.661Z,12.12
2018-11-26T15:00:26.404Z,11.97
2018-11-26T15:02:55.069Z,11.93
2018-11-26T15:05:23.754Z,11.93
2018-11-26T15:07:52.408Z,11.93
2018-11-26T15:10:22.241Z,11.98
2018-11-26T15:12:51.001Z,11.93
2018-11-26T15:15:23.453Z,11.93
2018-11-26T15:17:52.110Z,11.97
2018-11-26T15:20:24.348Z,11.88
2018-11-26T15:22:54.035Z,11.96
2018-11-26T15:25:26.563Z,12.05
2018-11-26T15:27:58.547Z,12.10
2018-11-26T15:30:27.243Z,11.98
2018-11-26T15:32:55.934Z,11.68
2018-11-26T15:35:25.060Z,11.52
2018-11-26T15:37:53.795Z,11.65
2018-11-26T15:40:23.003Z,11.78
2018-11-26T15:42:51.649Z,11.53
2018-11-26T15:45:23.203Z,11.72
2018-11-26T15:47:52.642Z,11.54
2018-11-26T15:50:21.377Z,11.72
2018-11-26T15:52:50.097Z,11.55
2018-11-26T15:55:19.915Z,11.60
2018-11-26T15:57:48.639Z,11.74
2018-11-26T16:00:22.320Z,11.85
2018-11-26T16:02:51.308Z,11.81
2018-11-26T16:05:21.328Z,11.89
2018-11-26T16:07:50.725Z,11.90
2018-11-26T16:10:19.418Z,11.81
2018-11-26T16:12:49.509Z,11.83
2018-11-26T16:15:19.672Z,11.88
2018-11-26T16:17:48.423Z,11.78
2018-11-26T16:20:18.572Z,11.74
2018-11-26T16:22:47.294Z,11.74
2018-11-26T16:25:17.441Z,11.64
2018-11-26T16:27:46.130Z,11.51
2018-11-26T16:30:20.823Z,11.51
2018-11-26T16:32:52.972Z,11.66
2018-11-26T16:35:23.230Z,11.75
2018-11-26T16:37:51.857Z,11.76
2018-11-26T16:40:20.707Z,11.55
2018-11-26T16:42:49.379Z,11.51
2018-11-26T16:45:20.840Z,11.55
2018-11-26T16:47:54.356Z,11.68
2018-11-26T16:50:25.610Z,11.91
2018-11-26T16:52:54.334Z,12.05
2018-11-26T16:55:22.995Z,11.87
2018-11-26T16:57:51.811Z,12.20
2018-11-26T17:00:24.395Z,12.33
2018-11-26T17:02:54.179Z,12.24
2018-11-26T17:05:39.546Z,12.15
2018-11-26T17:08:09.776Z,12.12
2018-11-26T17:10:38.496Z,12.06
2018-11-26T17:13:07.416Z,11.89
2018-11-26T17:15:36.158Z,11.76
2018-11-26T17:18:05.297Z,11.53
2018-11-26T17:20:33.917Z,11.37
2018-11-26T17:23:02.563Z,11.33
2018-11-26T17:25:31.312Z,11.22
2018-11-26T17:28:00.010Z,11.10
2018-11-26T17:30:29.219Z,11.07
2018-11-26T17:33:00.256Z,11.04
2018-11-26T17:35:29.541Z,10.96
2018-11-26T17:37:58.199Z,10.92
2018-11-26T17:40:27.485Z,10.91
2018-11-26T17:42:56.387Z,10.72
2018-11-26T17:45:25.585Z,10.69
2018-11-26T17:47:57.468Z,10.71
2018-11-26T17:50:36.943Z,10.66
2018-11-26T17:53:08.418Z,10.57
2018-11-26T17:55:48.524Z,10.61
2018-11-26T17:58:17.613Z,10.58
2018-11-26T18:00:48.228Z,10.60
2018-11-26T18:03:16.934Z,10.41
2018-11-26T18:05:45.580Z,10.26
2018-11-26T18:08:16.538Z,10.25
2018-11-26T18:10:45.361Z,10.42
2018-11-26T18:13:14.002Z,9.94
2018-11-26T18:15:42.729Z,10.23
2018-11-26T18:18:14.120Z,10.28
2018-11-26T18:20:42.789Z,10.31
2018-11-26T18:23:11.839Z,10.40
2018-11-26T18:25:40.638Z,10.36
2018-11-26T18:28:10.418Z,10.45
2018-11-26T18:30:43.156Z,10.63
2018-11-26T18:33:11.902Z,10.68
2018-11-26T18:35:41.217Z,10.75
2018-11-26T18:38:09.939Z,10.71
2018-11-26T18:40:39.977Z,10.65
2018-11-26T18:43:09.360Z,10.60
2018-11-26T18:45:39.079Z,10.50
2018-11-26T18:48:08.704Z,10.57
2018-11-26T18:50:37.441Z,10.60
2018-11-26T18:53:06.954Z,10.74
2018-11-26T18:55:35.742Z,10.72
2018-11-26T18:58:04.654Z,10.83
2018-11-26T19:00:35.415Z,10.63
2018-11-26T19:03:04.070Z,10.77
2018-11-26T19:05:32.738Z,10.76
2018-11-26T19:08:01.890Z,10.75
2018-11-26T19:10:32.530Z,10.72
2018-11-26T19:17:41.449Z,10.62
2018-11-26T19:20:11.434Z,10.56
2018-11-26T19:22:40.771Z,10.45
2018-11-26T19:25:11.386Z,10.53
2018-11-26T19:27:40.153Z,10.63
2018-11-26T19:30:16.525Z,10.62
2018-11-26T19:32:45.994Z,10.64
2018-11-26T19:35:16.710Z,10.63
2018-11-26T19:37:45.333Z,10.74
2018-11-26T19:40:16.346Z,10.71
2018-11-26T19:42:45.879Z,10.72
2018-11-26T19:45:16.651Z,10.73
2018-11-26T19:47:45.458Z,10.76
2018-11-26T19:50:15.333Z,10.78
2018-11-26T19:52:44.298Z,10.74
2018-11-26T19:55:19.454Z,10.62
2018-11-26T19:57:48.121Z,10.58
2018-11-26T20:00:20.056Z,10.59
2018-11-26T20:03:23.420Z,10.51
2018-11-26T20:06:12.368Z,10.24
2018-11-26T20:08:41.778Z,10.50
2018-11-26T20:11:11.313Z,10.48
2018-11-26T20:13:40.027Z,10.51
2018-11-26T20:16:12.639Z,10.45
2018-11-26T20:18:41.423Z,10.29
2018-11-26T20:21:10.250Z,10.21
2018-11-26T20:23:39.205Z,10.40
2018-11-26T20:26:07.961Z,10.51
2018-11-26T20:28:36.720Z,10.68
2018-11-26T20:31:06.058Z,10.79
2018-11-26T20:33:35.151Z,10.88
2018-11-26T20:36:03.952Z,10.94
2018-11-26T20:38:32.647Z,11.02
2018-11-26T20:41:01.356Z,11.05
2018-11-26T20:43:30.664Z,11.15
2018-11-26T20:45:59.332Z,11.06
2018-11-26T20:48:30.406Z,11.08
2018-11-26T20:50:56.897Z,11.02
2018-11-26T20:53:27.334Z,11.00
2018-11-26T20:55:56.183Z,11.08
2018-11-26T20:58:24.829Z,11.01
2018-11-26T21:00:53.519Z,10.98
2018-11-26T21:03:22.319Z,11.07
2018-11-26T21:05:51.076Z,11.13
2018-11-26T21:08:19.888Z,11.16
2018-11-26T21:10:48.539Z,10.65
2018-11-26T21:13:18.618Z,10.88
2018-11-26T21:15:47.334Z,10.95
2018-11-26T21:18:16.102Z,11.05
2018-11-26T21:20:48.951Z,11.05
2018-11-26T21:23:21.140Z,11.03
2018-11-26T21:25:49.949Z,11.08
2018-11-26T21:28:18.634Z,11.06
2018-11-26T21:30:51.976Z,11.12
2018-11-26T21:33:16.319Z,11.10
2018-11-26T21:35:45.050Z,11.13
2018-11-26T21:38:13.900Z,11.13
2018-11-26T21:40:42.630Z,11.04
2018-11-26T21:43:12.091Z,11.01
2018-11-26T21:45:50.580Z,11.07
2018-11-26T21:48:19.274Z,10.98
2018-11-26T21:50:48.015Z,11.01
2018-11-26T21:53:16.788Z,10.96
2018-11-26T21:55:45.453Z,10.89
2018-11-26T21:58:14.163Z,10.89
2018-11-26T22:00:43.250Z,10.79
2018-11-26T22:03:13.795Z,10.95
2018-11-26T22:05:43.525Z,10.90
2018-11-26T22:08:12.559Z,10.82
2018-11-26T22:10:42.408Z,10.81
2018-11-26T22:13:12.528Z,10.63
2018-11-26T22:15:41.233Z,10.51
2018-11-26T22:18:10.073Z,10.65
2018-11-26T22:20:38.940Z,10.65
2018-11-26T22:23:08.575Z,10.72
2018-11-26T22:25:37.377Z,10.70
2018-11-26T22:28:08.787Z,10.83
2018-11-26T22:30:38.222Z,10.83
2018-11-26T22:33:07.097Z,10.79
2018-11-26T22:35:35.775Z,10.73
2018-11-26T22:38:04.518Z,10.78
2018-11-26T22:40:33.269Z,10.76
2018-11-26T22:43:01.889Z,10.80
2018-11-26T22:45:31.927Z,10.74
2018-11-26T22:48:03.052Z,10.69
2018-11-26T22:50:32.314Z,10.67
2018-11-26T22:53:00.632Z,10.64
2018-11-26T22:55:29.315Z,10.54
2018-11-26T22:57:57.984Z,10.35
2018-11-26T23:00:41.575Z,10.21
2018-11-26T23:03:11.172Z,10.01
2018-11-26T23:05:39.837Z,9.88
2018-11-26T23:08:08.499Z,9.80
2018-11-26T23:10:37.148Z,9.61
2018-11-26T23:13:06.066Z,9.41
2018-11-26T23:15:34.835Z,9.34
2018-11-26T23:18:03.615Z,9.20
2018-11-26T23:20:32.307Z,8.97
2018-11-26T23:23:00.984Z,8.82
2018-11-26T23:25:29.638Z,8.46
2018-11-26T23:27:58.382Z,8.24
2018-11-26T23:30:28.249Z,8.12
2018-11-26T23:33:04.587Z,7.98
2018-11-26T23:35:33.174Z,7.94
2018-11-26T23:38:03.085Z,7.92
2018-11-26T23:40:31.762Z,7.94
2018-11-26T23:43:00.397Z,8.00
2018-11-26T23:45:29.816Z,8.07
2018-11-26T23:47:58.520Z,8.23
2018-11-26T23:50:27.166Z,8.36
2018-11-26T23:52:55.745Z,8.48
2018-11-26T23:55:25.130Z,8.62
2018-11-26T23:57:53.766Z,8.62
